Time;durP1;ratioP1;P1;durP2;ratioP2;P2;SDS_P1;SDS_P2;PMS_P1;PMS_P2;Temp;Humidity;BMP_temperature;BMP_pressure;BME280_temperature;BME280_humidity;BME280_pressure;Samples;Min_cycle;Max_cycle;Signal;HPM_P1;HPM_P2
2023/09/15 00:01:00;;;;;;;0.40;0.30;;;;;;;13.64;89.13;101577.81;4983766;28;20579;-66
2023/09/15 00:03:25;;;;;;;0.75;0.50;;;;;;;13.67;89.02;101575.19;4987954;28;20448;-66
2023/09/15 00:05:51;;;;;;;1.15;0.52;;;;;;;13.66;88.81;101578.25;4990442;28;20316;-66
2023/09/15 00:08:16;;;;;;;0.80;0.40;;;;;;;13.52;88.89;101576.00;4988016;28;20058;-65
2023/09/15 00:10:44;;;;;;;2.65;0.47;;;;;;;13.52;89.01;101579.50;4984021;28;20046;-66
2023/09/15 00:13:09;;;;;;;0.40;0.30;;;;;;;13.47;88.88;101582.47;4990539;28;20038;-66
2023/09/15 00:15:35;;;;;;;0.60;0.40;;;;;;;13.42;88.63;101574.63;4988885;28;20710;-66
2023/09/15 00:18:01;;;;;;;0.55;0.50;;;;;;;13.34;89.42;101577.50;4990411;28;20053;-66
2023/09/15 00:20:26;;;;;;;0.60;0.40;;;;;;;13.42;89.29;101576.53;4986309;28;20578;-66
2023/09/15 00:22:55;;;;;;;2.15;0.40;;;;;;;13.38;89.55;101583.78;4990028;28;20212;-65
2023/09/15 00:25:23;;;;;;;1.25;0.40;;;;;;;13.34;89.45;101583.69;4984726;28;20061;-66
2023/09/15 00:28:15;;;;;;;0.40;0.40;;;;;;;13.28;89.39;101582.38;4992385;28;20034;-66
2023/09/15 00:30:40;;;;;;;0.15;0.15;;;;;;;13.31;89.33;101581.72;4960535;28;20117;-65
2023/09/15 00:33:05;;;;;;;1.73;0.50;;;;;;;13.32;89.22;101585.19;4950968;28;20078;-66
2023/09/15 00:35:31;;;;;;;0.55;0.40;;;;;;;13.32;89.36;101585.19;4962385;28;20130;-66
2023/09/15 00:37:56;;;;;;;0.80;0.47;;;;;;;13.26;89.13;101584.66;4946928;28;20031;-65
2023/09/15 00:40:24;;;;;;;0.40;0.32;;;;;;;13.21;89.87;101589.56;4966551;28;20038;-66
2023/09/15 00:42:51;;;;;;;0.40;0.38;;;;;;;13.22;89.86;101583.03;4946490;28;20081;-65
2023/09/15 00:45:19;;;;;;;0.20;0.20;;;;;;;13.23;89.84;101579.97;4953317;28;20490;-66
2023/09/15 00:47:49;;;;;;;0.50;0.30;;;;;;;13.23;89.67;101582.66;4944320;28;20155;-65
2023/09/15 00:50:16;;;;;;;0.32;0.30;;;;;;;13.25;89.46;101580.41;4949756;28;20031;-66
2023/09/15 00:52:54;;;;;;;1.38;0.30;;;;;;;13.22;89.56;101586.47;4945997;28;20035;-66
2023/09/15 00:55:24;;;;;;;0.60;0.52;;;;;;;13.20;89.51;101583.34;4968711;28;20062;-66
2023/09/15 00:57:51;;;;;;;0.30;0.30;;;;;;;13.17;89.58;101580.56;4947142;28;20113;-66
2023/09/15 01:00:19;;;;;;;0.60;0.52;;;;;;;12.97;90.04;101574.22;4946240;28;20069;-66
2023/09/15 01:02:46;;;;;;;0.70;0.70;;;;;;;13.00;89.99;101575.47;4963483;28;20070;-66
2023/09/15 01:05:19;;;;;;;0.47;0.45;;;;;;;13.06;89.69;101588.41;4967824;28;20129;-66
2023/09/15 01:07:46;;;;;;;0.40;0.40;;;;;;;13.10;89.73;101575.78;4970098;28;20079;-65
2023/09/15 01:10:12;;;;;;;0.38;0.30;;;;;;;13.15;89.99;101578.22;4989113;28;20073;-65
2023/09/15 01:12:38;;;;;;;0.20;0.20;;;;;;;13.16;89.85;101584.41;4985617;28;20052;-65
2023/09/15 01:15:04;;;;;;;0.47;0.40;;;;;;;13.00;90.43;101576.25;4990324;28;20041;-65
2023/09/15 01:17:39;;;;;;;0.52;0.38;;;;;;;12.99;90.23;101571.22;4984024;28;20487;-65
2023/09/15 01:20:26;;;;;;;0.57;0.40;;;;;;;12.99;90.33;101576.63;4983177;28;20034;-65
2023/09/15 01:23:30;;;;;;;0.70;0.35;;;;;;;12.96;90.57;101574.59;4989690;28;20042;-65
2023/09/15 01:26:33;;;;;;;0.40;0.40;;;;;;;12.82;90.48;101566.91;4932503;29;20090;-65
2023/09/15 01:29:05;;;;;;;0.40;0.40;;;;;;;12.87;90.66;101561.25;4941021;28;20042;-65
2023/09/15 01:31:51;;;;;;;2.63;0.55;;;;;;;12.90;90.55;101567.84;4947388;29;20549;-64
2023/09/15 01:34:19;;;;;;;0.93;0.40;;;;;;;12.92;90.85;101563.69;4895646;29;20048;-65
2023/09/15 01:36:44;;;;;;;0.73;0.50;;;;;;;12.98;90.50;101558.81;4927260;29;21744;-64
2023/09/15 01:39:10;;;;;;;2.83;0.52;;;;;;;12.98;90.50;101559.59;4925315;29;20044;-65
2023/09/15 01:41:36;;;;;;;0.38;0.38;;;;;;;12.94;90.47;101560.63;4925939;29;20135;-66
2023/09/15 01:44:01;;;;;;;0.50;0.50;;;;;;;12.80;90.92;101557.56;4926004;29;20063;-67
2023/09/15 01:46:47;;;;;;;3.17;1.10;;;;;;;12.75;91.17;101564.03;4920846;29;20531;-66
2023/09/15 01:49:14;;;;;;;0.55;0.40;;;;;;;12.69;91.25;101552.69;4863071;29;20040;-65
2023/09/15 01:51:39;;;;;;;0.68;0.60;;;;;;;12.77;91.06;101558.25;4878261;29;20152;-66
2023/09/15 01:54:26;;;;;;;0.22;0.22;;;;;;;12.81;90.90;101559.94;4882686;29;20049;-65
2023/09/15 01:56:52;;;;;;;0.50;0.45;;;;;;;12.83;90.95;101551.47;4806715;29;20524;-66
2023/09/15 01:59:18;;;;;;;0.50;0.45;;;;;;;12.82;90.77;101555.28;4799338;29;20066;-65
2023/09/15 02:01:43;;;;;;;0.88;0.30;;;;;;;12.68;90.99;101553.00;4798936;29;20081;-65
2023/09/15 02:04:10;;;;;;;0.28;0.22;;;;;;;12.71;91.24;101555.03;4799127;29;20059;-65
2023/09/15 02:06:35;;;;;;;2.30;0.60;;;;;;;12.69;90.96;101558.09;4798510;29;20050;-65
2023/09/15 02:09:04;;;;;;;0.93;0.70;;;;;;;12.74;90.59;101556.25;4793256;29;20042;-65
2023/09/15 02:11:30;;;;;;;0.43;0.35;;;;;;;12.68;91.13;101550.31;4831899;29;20434;-65
2023/09/15 02:13:55;;;;;;;0.30;0.30;;;;;;;12.64;90.73;101552.91;4853731;29;20033;-66
2023/09/15 02:16:20;;;;;;;0.47;0.47;;;;;;;12.61;90.74;101556.31;4854559;29;20464;-65
2023/09/15 02:18:47;;;;;;;0.60;0.60;;;;;;;12.68;90.98;101561.13;4834742;29;20069;-65
2023/09/15 02:21:12;;;;;;;0.52;0.32;;;;;;;12.63;90.24;101555.97;4836378;29;20073;-65
2023/09/15 02:23:37;;;;;;;0.68;0.30;;;;;;;12.60;90.92;101541.22;4836994;29;20072;-65
2023/09/15 02:26:04;;;;;;;0.30;0.30;;;;;;;12.66;90.61;101544.47;4875489;29;20044;-65
2023/09/15 02:28:31;;;;;;;0.47;0.47;;;;;;;12.70;90.80;101550.75;4905231;29;20048;-66
2023/09/15 02:30:57;;;;;;;0.43;0.40;;;;;;;12.64;90.69;101550.22;4907894;29;20040;-66
2023/09/15 02:33:22;;;;;;;1.50;0.60;;;;;;;12.60;90.47;101543.94;4927118;28;20053;-66
2023/09/15 02:35:49;;;;;;;0.65;0.45;;;;;;;12.60;91.05;101535.06;4987903;28;20030;-66
2023/09/15 02:38:14;;;;;;;0.88;0.40;;;;;;;12.62;90.68;101541.66;4980101;28;20511;-65
2023/09/15 02:40:40;;;;;;;0.40;0.40;;;;;;;12.57;90.35;101544.63;4984484;28;20037;-65
2023/09/15 02:43:08;;;;;;;0.30;0.30;;;;;;;12.53;90.55;101543.75;4983013;28;20649;-65
2023/09/15 02:45:35;;;;;;;1.50;0.47;;;;;;;12.52;90.85;101544.88;4981868;28;20076;-65
2023/09/15 02:48:02;;;;;;;0.40;0.38;;;;;;;12.53;90.47;101534.84;4984694;28;20132;-65
2023/09/15 02:50:27;;;;;;;0.35;0.30;;;;;;;12.52;90.28;101530.59;4985367;28;20030;-64
2023/09/15 02:52:53;;;;;;;0.80;0.70;;;;;;;12.51;90.74;101532.50;4985305;28;20034;-64
2023/09/15 02:55:19;;;;;;;1.95;0.65;;;;;;;12.52;90.49;101525.94;4988252;28;20117;-65
2023/09/15 02:57:45;;;;;;;0.40;0.40;;;;;;;12.48;90.40;101525.09;4978766;28;20050;-65
2023/09/15 03:00:13;;;;;;;0.90;0.65;;;;;;;12.48;90.87;101524.31;4982051;28;20121;-65
2023/09/15 03:02:44;;;;;;;0.40;0.40;;;;;;;12.48;90.42;101530.50;4984279;28;20039;-64
2023/09/15 03:05:10;;;;;;;0.73;0.73;;;;;;;12.45;90.09;101525.78;4989208;28;20038;-65
2023/09/15 03:07:39;;;;;;;0.90;0.70;;;;;;;12.38;90.29;101517.50;4988337;28;20036;-66
2023/09/15 03:10:08;;;;;;;0.70;0.47;;;;;;;12.35;90.94;101525.50;4986541;28;20030;-65
2023/09/15 03:12:34;;;;;;;1.00;0.80;;;;;;;12.42;90.59;101517.56;4990604;28;20038;-66
2023/09/15 03:15:04;;;;;;;0.85;0.60;;;;;;;12.38;91.09;101520.19;4987693;28;20113;-65
2023/09/15 03:17:30;;;;;;;0.55;0.50;;;;;;;12.37;90.91;101518.59;4989038;28;20030;-65
2023/09/15 03:19:56;;;;;;;0.35;0.35;;;;;;;12.35;91.08;101523.56;4982855;28;20082;-65
2023/09/15 03:22:21;;;;;;;0.40;0.40;;;;;;;12.40;91.26;101526.03;4982062;28;20399;-65
2023/09/15 03:24:46;;;;;;;0.47;0.43;;;;;;;12.45;91.44;101516.88;4990025;28;20029;-65
2023/09/15 03:27:12;;;;;;;0.52;0.52;;;;;;;12.38;91.54;101509.38;4994234;28;20031;-63
2023/09/15 03:29:37;;;;;;;0.77;0.30;;;;;;;12.42;91.64;101512.97;4980223;28;20034;-65
2023/09/15 03:32:03;;;;;;;0.55;0.55;;;;;;;12.40;91.53;101511.75;4986850;28;20093;-64
2023/09/15 03:34:28;;;;;;;1.02;0.73;;;;;;;12.42;92.44;101510.28;4989207;28;20041;-65
2023/09/15 03:36:54;;;;;;;1.75;0.75;;;;;;;12.52;91.95;101515.16;4989077;28;20076;-64
2023/09/15 03:39:19;;;;;;;0.52;0.45;;;;;;;12.51;92.08;101507.38;4986108;28;20608;-65
2023/09/15 03:41:45;;;;;;;2.30;0.60;;;;;;;12.44;91.69;101509.91;4983291;28;20046;-64
2023/09/15 03:44:10;;;;;;;0.70;0.65;;;;;;;12.44;91.84;101513.41;4991584;28;20027;-65
2023/09/15 03:46:35;;;;;;;0.85;0.55;;;;;;;12.45;92.00;101514.97;4985975;28;20034;-64
2023/09/15 03:49:04;;;;;;;0.63;0.63;;;;;;;12.49;91.83;101520.47;4980675;28;20035;-65
2023/09/15 03:51:29;;;;;;;0.57;0.43;;;;;;;12.48;91.77;101519.69;4989312;28;20026;-65
2023/09/15 03:53:55;;;;;;;1.02;0.55;;;;;;;12.43;92.02;101514.53;4979781;28;20010;-65
2023/09/15 03:56:20;;;;;;;0.98;0.70;;;;;;;12.28;92.11;101509.09;4989018;28;20046;-65
2023/09/15 03:58:46;;;;;;;1.02;0.63;;;;;;;12.25;91.72;101518.66;4989543;28;20121;-64
2023/09/15 04:01:13;;;;;;;1.67;0.63;;;;;;;12.21;92.23;101512.41;4988408;28;20037;-65
2023/09/15 04:03:38;;;;;;;1.10;0.82;;;;;;;12.27;92.60;101519.09;4986452;28;20554;-65
2023/09/15 04:06:04;;;;;;;0.75;0.50;;;;;;;12.30;92.16;101515.72;4988986;28;20082;-64
2023/09/15 04:08:30;;;;;;;1.25;0.70;;;;;;;12.26;92.60;101514.84;4974513;28;21168;-65
2023/09/15 04:10:57;;;;;;;0.40;0.40;;;;;;;12.31;92.44;101517.28;4978164;28;20049;-65
2023/09/15 04:13:22;;;;;;;0.50;0.40;;;;;;;12.34;92.94;101513.91;4975086;28;20035;-65
2023/09/15 04:15:48;;;;;;;0.90;0.63;;;;;;;12.32;92.66;101510.75;4983236;28;20077;-65
2023/09/15 04:18:13;;;;;;;0.60;0.50;;;;;;;12.29;92.70;101507.97;4979029;28;20400;-65
2023/09/15 04:20:59;;;;;;;1.10;0.70;;;;;;;12.37;92.61;101512.41;4985194;28;20042;-65
2023/09/15 04:23:25;;;;;;;0.32;0.32;;;;;;;12.18;93.41;101510.38;4948794;28;20114;-64
2023/09/15 04:25:50;;;;;;;0.43;0.43;;;;;;;12.15;93.44;101502.97;4952625;28;20042;-64
2023/09/15 04:28:16;;;;;;;1.75;0.82;;;;;;;12.20;93.63;101504.63;4950682;28;20585;-64
2023/09/15 04:30:43;;;;;;;1.67;0.57;;;;;;;12.21;93.33;101507.00;4954143;28;20050;-64
2023/09/15 04:33:12;;;;;;;2.00;0.40;;;;;;;12.24;93.11;101508.19;4951850;28;20092;-66
2023/09/15 04:35:37;;;;;;;2.38;0.90;;;;;;;12.26;92.78;101501.34;4959453;28;20050;-62
2023/09/15 04:38:03;;;;;;;1.58;0.90;;;;;;;12.25;92.90;101513.25;4956793;28;20035;-64
2023/09/15 04:40:28;;;;;;;1.05;0.57;;;;;;;12.31;92.99;101508.41;4950397;28;20039;-64
2023/09/15 04:42:54;;;;;;;0.57;0.40;;;;;;;12.29;93.13;101506.03;4961943;28;20575;-64
2023/09/15 04:45:20;;;;;;;0.57;0.50;;;;;;;12.28;92.74;101504.47;4950359;28;20031;-65
2023/09/15 04:47:46;;;;;;;0.88;0.80;;;;;;;12.30;92.92;101507.63;4953844;28;20090;-64
2023/09/15 04:50:18;;;;;;;1.35;0.90;;;;;;;12.26;93.00;101505.94;4966859;28;20114;-64
2023/09/15 04:52:45;;;;;;;1.15;0.70;;;;;;;12.32;93.64;101510.75;4947792;28;20049;-64
2023/09/15 04:55:10;;;;;;;0.70;0.50;;;;;;;12.34;92.92;101511.22;4944977;28;20153;-63
2023/09/15 04:57:36;;;;;;;0.60;0.60;;;;;;;12.27;93.34;101504.81;4954231;28;20041;-62
2023/09/15 05:00:12;;;;;;;0.85;0.52;;;;;;;12.33;92.82;101512.31;4964940;28;20129;-62
2023/09/15 05:02:42;;;;;;;0.70;0.50;;;;;;;12.33;93.20;101515.03;4979080;28;20444;-64
2023/09/15 05:05:08;;;;;;;0.95;0.45;;;;;;;12.27;92.99;101516.41;4986658;28;20432;-65
2023/09/15 05:07:34;;;;;;;1.15;0.75;;;;;;;12.20;93.37;101512.72;4987623;28;20089;-64
2023/09/15 05:10:00;;;;;;;0.68;0.45;;;;;;;12.25;93.91;101515.19;4981982;28;20583;-64
2023/09/15 05:12:25;;;;;;;0.70;0.50;;;;;;;12.23;93.82;101517.44;4981703;28;20066;-65
2023/09/15 05:14:51;;;;;;;0.98;0.73;;;;;;;12.35;93.95;101520.09;4991416;28;20053;-64
2023/09/15 05:17:16;;;;;;;0.98;0.80;;;;;;;12.41;93.82;101518.69;4990564;28;20033;-65
2023/09/15 05:19:42;;;;;;;0.80;0.55;;;;;;;12.46;94.02;101523.88;4985953;28;20085;-65
2023/09/15 05:22:08;;;;;;;0.98;0.80;;;;;;;12.45;94.49;101524.97;4986913;28;20038;-65
2023/09/15 05:24:33;;;;;;;1.17;0.73;;;;;;;12.46;94.68;101521.97;4965421;28;20101;-65
2023/09/15 05:26:59;;;;;;;0.98;0.75;;;;;;;12.53;94.89;101527.53;4981454;28;20034;-64
2023/09/15 05:29:25;;;;;;;0.68;0.68;;;;;;;12.52;95.12;101530.59;4978823;28;20368;-65
2023/09/15 05:31:50;;;;;;;6.05;0.70;;;;;;;12.50;95.31;101527.44;4984909;28;20014;-65
2023/09/15 05:34:15;;;;;;;2.60;1.02;;;;;;;12.60;94.92;101533.13;4979329;28;20035;-64
2023/09/15 05:36:42;;;;;;;0.90;0.68;;;;;;;12.77;94.76;101536.63;4983043;28;20042;-65
2023/09/15 05:39:08;;;;;;;2.50;0.80;;;;;;;12.87;94.21;101528.81;4986191;28;20042;-65
2023/09/15 05:41:34;;;;;;;1.27;0.52;;;;;;;12.93;93.87;101535.50;4989676;28;20554;-64
2023/09/15 05:43:59;;;;;;;0.60;0.52;;;;;;;13.03;93.81;101535.00;4985156;28;20026;-64
2023/09/15 05:46:25;;;;;;;1.52;1.23;;;;;;;13.06;93.86;101526.22;4990024;28;20125;-65
2023/09/15 05:48:50;;;;;;;2.35;0.82;;;;;;;13.15;93.69;101534.13;4983976;28;20030;-66
2023/09/15 05:51:16;;;;;;;0.95;0.75;;;;;;;13.15;94.11;101531.44;4983696;28;20043;-65
2023/09/15 05:53:41;;;;;;;1.05;0.70;;;;;;;13.17;93.84;101529.16;4982877;28;20034;-65
2023/09/15 05:56:06;;;;;;;1.38;0.93;;;;;;;13.09;94.43;101527.44;4985828;28;20189;-65
2023/09/15 05:58:32;;;;;;;1.35;0.75;;;;;;;13.14;94.34;101527.19;4988742;28;20128;-65
2023/09/15 06:00:57;;;;;;;1.40;0.90;;;;;;;13.11;94.52;101530.56;4987093;28;20044;-65
2023/09/15 06:03:24;;;;;;;0.70;0.52;;;;;;;13.19;94.38;101527.69;4982580;28;20087;-64
2023/09/15 06:05:49;;;;;;;1.10;0.80;;;;;;;13.24;94.30;101530.13;4985916;28;20124;-65
2023/09/15 06:08:15;;;;;;;0.95;0.68;;;;;;;13.31;94.36;101534.91;4980800;28;20098;-64
2023/09/15 06:10:40;;;;;;;0.50;0.50;;;;;;;13.41;94.39;101534.38;4986738;28;20027;-65
2023/09/15 06:13:06;;;;;;;0.63;0.63;;;;;;;13.50;93.95;101534.97;4979931;28;20562;-64
2023/09/15 06:15:34;;;;;;;1.08;0.98;;;;;;;13.60;94.41;101537.13;4985797;28;20057;-65
2023/09/15 06:18:01;;;;;;;1.10;1.00;;;;;;;13.66;94.09;101533.03;4985469;28;20048;-65
2023/09/15 06:20:30;;;;;;;0.77;0.60;;;;;;;13.76;94.76;101535.19;4987460;28;20034;-64
2023/09/15 06:22:56;;;;;;;1.10;0.90;;;;;;;13.85;94.69;101543.88;4986269;28;20150;-65
2023/09/15 06:25:21;;;;;;;0.75;0.50;;;;;;;13.84;94.64;101541.53;4978696;28;20030;-65
2023/09/15 06:27:47;;;;;;;3.15;0.75;;;;;;;13.92;94.75;101538.59;4988241;28;20030;-65
2023/09/15 06:30:13;;;;;;;0.55;0.45;;;;;;;13.99;94.55;101543.41;4990059;28;20459;-65
2023/09/15 06:32:38;;;;;;;1.50;0.82;;;;;;;14.00;94.75;101545.75;4989270;28;20065;-66
2023/09/15 06:35:04;;;;;;;1.10;0.77;;;;;;;14.07;94.86;101545.13;4979977;28;20023;-65
2023/09/15 06:37:29;;;;;;;0.95;0.77;;;;;;;14.14;95.13;101546.03;4983783;28;20030;-65
2023/09/15 06:39:55;;;;;;;0.82;0.70;;;;;;;14.24;94.58;101541.97;4981989;28;20564;-65
2023/09/15 06:42:23;;;;;;;1.00;0.70;;;;;;;14.26;94.93;101542.41;4988069;28;20113;-65
2023/09/15 06:44:48;;;;;;;1.10;0.77;;;;;;;14.31;95.21;101544.84;4979530;28;20428;-65
2023/09/15 06:47:14;;;;;;;0.98;0.90;;;;;;;14.43;94.97;101548.19;4987291;28;20547;-65
2023/09/15 06:49:39;;;;;;;1.98;0.90;;;;;;;14.62;94.89;101541.97;4982898;28;20495;-66
2023/09/15 06:52:06;;;;;;;1.30;1.15;;;;;;;14.74;94.60;101549.13;4979981;28;20101;-65
2023/09/15 06:54:31;;;;;;;1.90;0.80;;;;;;;14.91;94.42;101552.16;4978805;28;20138;-65
2023/09/15 06:56:57;;;;;;;1.70;0.82;;;;;;;15.13;94.12;101547.88;4989714;28;20837;-66
2023/09/15 06:59:22;;;;;;;0.65;0.65;;;;;;;15.27;93.56;101558.97;4991197;28;20033;-65
2023/09/15 07:01:48;;;;;;;1.10;0.65;;;;;;;15.43;92.95;101559.63;4993951;28;20495;-66
2023/09/15 07:04:13;;;;;;;0.60;0.60;;;;;;;15.57;92.47;101551.69;4992225;28;20375;-65
2023/09/15 07:06:39;;;;;;;1.23;0.77;;;;;;;15.68;92.54;101549.16;4993562;28;20039;-64
2023/09/15 07:09:05;;;;;;;2.22;0.70;;;;;;;15.72;91.99;101547.22;4990420;28;20046;-65
2023/09/15 07:11:30;;;;;;;1.38;0.93;;;;;;;15.84;92.09;101547.81;4986057;28;20030;-65
2023/09/15 07:13:56;;;;;;;1.08;0.77;;;;;;;15.92;91.80;101546.75;4987885;28;20427;-65
2023/09/15 07:16:21;;;;;;;0.88;0.70;;;;;;;16.04;91.38;101545.75;4992134;28;20037;-65
2023/09/15 07:18:46;;;;;;;0.85;0.52;;;;;;;16.10;91.01;101545.03;4991892;28;20030;-65
2023/09/15 07:21:12;;;;;;;2.03;0.93;;;;;;;16.23;91.26;101540.94;4991434;28;20598;-65
2023/09/15 07:23:37;;;;;;;1.20;0.80;;;;;;;16.41;90.74;101535.69;4979570;28;20038;-65
2023/09/15 07:26:03;;;;;;;3.22;0.50;;;;;;;16.55;90.41;101538.56;4984952;28;20070;-65
2023/09/15 07:28:28;;;;;;;1.52;0.63;;;;;;;16.81;90.14;101535.75;4983642;28;20050;-65
2023/09/15 07:31:04;;;;;;;0.50;0.50;;;;;;;17.06;89.77;101534.00;4986376;28;20618;-65
2023/09/15 07:33:30;;;;;;;1.88;0.80;;;;;;;17.10;89.32;101536.75;4990827;28;20498;-65
2023/09/15 07:36:03;;;;;;;0.88;0.40;;;;;;;17.23;87.01;101534.53;4993401;28;20058;-65
2023/09/15 07:38:30;;;;;;;2.13;0.88;;;;;;;17.18;87.13;101535.66;4980164;28;20042;-65
2023/09/15 07:40:57;;;;;;;3.03;1.00;;;;;;;17.54;86.35;101553.03;4990490;28;20042;-66
2023/09/15 07:43:22;;;;;;;1.73;0.75;;;;;;;17.71;85.52;101544.97;4992554;28;20030;-65
2023/09/15 07:45:48;;;;;;;0.85;0.65;;;;;;;18.19;84.23;101536.66;4990510;28;20100;-65
2023/09/15 07:48:15;;;;;;;3.03;0.80;;;;;;;18.58;81.10;101535.59;4991533;28;20062;-66
2023/09/15 07:50:40;;;;;;;1.67;0.70;;;;;;;18.68;81.47;101536.78;4992383;28;20030;-65
2023/09/15 07:53:06;;;;;;;1.73;0.70;;;;;;;19.00;81.14;101532.16;4984356;28;20077;-65
2023/09/15 07:55:31;;;;;;;2.33;0.80;;;;;;;19.23;77.03;101538.00;4988488;28;20109;-65
2023/09/15 07:57:57;;;;;;;1.23;0.68;;;;;;;18.92;76.31;101531.38;4993445;28;20041;-65
2023/09/15 08:00:23;;;;;;;0.70;0.55;;;;;;;19.27;77.11;101543.44;4989470;28;20133;-65
2023/09/15 08:02:51;;;;;;;1.52;0.75;;;;;;;19.35;73.31;101531.38;4987595;28;20088;-65
2023/09/15 08:05:16;;;;;;;2.97;0.68;;;;;;;19.50;74.43;101536.41;4992172;28;20122;-64
2023/09/15 08:07:44;;;;;;;0.93;0.60;;;;;;;19.75;73.81;101539.88;4991660;28;20747;-65
2023/09/15 08:10:11;;;;;;;1.30;0.60;;;;;;;19.99;73.37;101545.66;4985443;28;20022;-65
2023/09/15 08:12:37;;;;;;;0.38;0.38;;;;;;;20.31;73.61;101538.09;4986917;28;20040;-65
2023/09/15 08:15:05;;;;;;;1.40;0.70;;;;;;;20.55;72.04;101550.88;4988643;28;20038;-65
2023/09/15 08:17:52;;;;;;;0.32;0.30;;;;;;;20.74;71.76;101544.09;4992114;28;20447;-65
2023/09/15 08:20:19;;;;;;;0.77;0.43;;;;;;;20.99;71.64;101541.97;4969082;28;20551;-65
2023/09/15 08:22:44;;;;;;;0.60;0.40;;;;;;;20.95;69.80;101539.25;4968963;28;20050;-65
2023/09/15 08:25:30;;;;;;;0.68;0.40;;;;;;;21.01;67.26;101545.88;4964557;28;20055;-66
2023/09/15 08:27:56;;;;;;;0.60;0.45;;;;;;;21.34;68.68;101533.47;4913488;29;20071;-65
2023/09/15 08:30:22;;;;;;;1.10;0.40;;;;;;;21.41;68.22;101541.59;4907614;29;20555;-65
2023/09/15 08:32:48;;;;;;;1.27;0.70;;;;;;;21.56;64.92;101543.03;4912360;29;20537;-65
2023/09/15 08:35:13;;;;;;;0.68;0.50;;;;;;;21.52;65.47;101537.56;4910937;29;20052;-65
2023/09/15 08:37:38;;;;;;;0.77;0.45;;;;;;;21.68;67.56;101539.75;4909883;29;20047;-65
2023/09/15 08:40:05;;;;;;;1.40;0.50;;;;;;;21.56;62.91;101535.56;4914411;29;20489;-65
2023/09/15 08:42:30;;;;;;;0.68;0.50;;;;;;;21.79;63.20;101528.69;4917184;29;20028;-65
2023/09/15 08:44:57;;;;;;;1.55;0.57;;;;;;;22.22;61.93;101525.00;4912397;29;20119;-65
2023/09/15 08:47:31;;;;;;;1.08;0.38;;;;;;;22.32;60.07;101528.81;4912866;29;20262;-65
2023/09/15 08:49:59;;;;;;;3.92;0.63;;;;;;;22.54;61.92;101534.78;4913148;29;20063;-65
2023/09/15 08:52:25;;;;;;;0.65;0.50;;;;;;;22.52;59.36;101529.69;4915091;29;20052;-66
2023/09/15 08:54:51;;;;;;;0.90;0.60;;;;;;;22.08;59.18;101530.72;4911550;29;20047;-66
2023/09/15 08:57:18;;;;;;;1.08;0.38;;;;;;;22.58;60.05;101533.56;4912792;29;20044;-66
2023/09/15 09:00:07;;;;;;;2.05;0.73;;;;;;;23.02;58.47;101530.50;4919293;29;20036;-64
2023/09/15 09:02:33;;;;;;;0.57;0.30;;;;;;;23.24;58.82;101528.97;4916389;29;20048;-65
2023/09/15 09:04:58;;;;;;;2.45;0.40;;;;;;;23.19;57.22;101529.44;4931214;29;20501;-65
2023/09/15 09:07:25;;;;;;;0.40;0.20;;;;;;;23.26;55.99;101534.03;4933282;29;20054;-65
2023/09/15 09:09:51;;;;;;;2.22;0.60;;;;;;;23.27;53.25;101528.13;4946063;29;20416;-66
2023/09/15 09:12:17;;;;;;;0.93;0.52;;;;;;;23.18;55.02;101518.84;4949603;29;20128;-65
2023/09/15 09:14:42;;;;;;;1.10;0.52;;;;;;;23.47;54.07;101528.19;4950116;29;20083;-65
2023/09/15 09:17:08;;;;;;;4.88;0.50;;;;;;;23.60;54.55;101525.56;4946948;29;20135;-65
2023/09/15 09:19:37;;;;;;;0.43;0.40;;;;;;;24.08;52.11;101531.31;4945591;29;20373;-65
2023/09/15 09:22:04;;;;;;;2.55;0.75;;;;;;;23.72;52.80;101522.19;4942444;28;20039;-64
2023/09/15 09:24:30;;;;;;;1.10;0.60;;;;;;;23.91;53.58;101519.44;4942709;29;20074;-65
2023/09/15 09:26:56;;;;;;;0.68;0.35;;;;;;;24.27;54.68;101525.00;4947272;29;20047;-66
2023/09/15 09:29:27;;;;;;;0.70;0.40;;;;;;;24.50;53.97;101519.38;4947064;29;20043;-64
2023/09/15 09:31:53;;;;;;;1.23;0.47;;;;;;;24.69;52.05;101515.78;4945008;28;20121;-64
2023/09/15 09:34:21;;;;;;;1.25;0.52;;;;;;;24.84;51.95;101519.75;4945686;28;20536;-64
2023/09/15 09:36:50;;;;;;;0.55;0.50;;;;;;;25.02;53.06;101511.03;4948655;28;20090;-65
2023/09/15 09:39:16;;;;;;;0.47;0.47;;;;;;;25.27;52.75;101516.69;4966467;28;20058;-65
2023/09/15 09:41:43;;;;;;;0.80;0.45;;;;;;;25.29;50.07;101522.56;4984822;28;20037;-65
2023/09/15 09:44:09;;;;;;;0.98;0.47;;;;;;;24.35;50.20;101514.63;4975829;28;20045;-65
2023/09/15 09:46:36;;;;;;;0.98;0.75;;;;;;;24.83;50.24;101512.72;4983191;28;20039;-65
2023/09/15 09:49:03;;;;;;;1.17;0.52;;;;;;;25.08;49.51;101512.06;4985232;28;20034;-65
2023/09/15 09:51:29;;;;;;;0.75;0.38;;;;;;;24.91;50.33;101503.03;4988394;28;20053;-63
2023/09/15 09:53:55;;;;;;;2.05;0.43;;;;;;;25.18;50.25;101505.50;4982964;28;20031;-65
2023/09/15 09:56:22;;;;;;;0.40;0.40;;;;;;;24.90;50.29;101493.22;4985437;28;20112;-65
2023/09/15 09:58:48;;;;;;;2.10;0.77;;;;;;;24.80;49.07;101494.25;4984944;28;20030;-65
2023/09/15 10:01:14;;;;;;;6.05;0.63;;;;;;;24.81;48.66;101489.53;4983435;28;20046;-65
2023/09/15 10:03:40;;;;;;;0.55;0.40;;;;;;;25.07;49.84;101498.72;4982061;28;20037;-65
2023/09/15 10:06:07;;;;;;;2.10;0.60;;;;;;;24.61;49.33;101480.53;4984917;28;20046;-64
2023/09/15 10:08:34;;;;;;;2.13;0.77;;;;;;;24.48;49.67;101488.72;4989737;28;20042;-65
2023/09/15 10:10:59;;;;;;;0.90;0.57;;;;;;;24.49;49.27;101494.97;4987748;28;20034;-65
2023/09/15 10:13:26;;;;;;;2.10;0.77;;;;;;;24.54;50.03;101488.97;4984756;28;20088;-66
2023/09/15 10:15:53;;;;;;;1.17;0.70;;;;;;;24.44;51.55;101490.00;4984659;28;20034;-64
2023/09/15 10:18:20;;;;;;;1.77;0.80;;;;;;;24.56;50.76;101481.84;4988186;28;20451;-65
2023/09/15 10:20:49;;;;;;;1.13;0.40;;;;;;;24.73;51.14;101480.66;4983015;28;20069;-64
2023/09/15 10:23:15;;;;;;;1.63;0.90;;;;;;;24.63;51.26;101475.38;4980021;28;20042;-65
2023/09/15 10:25:47;;;;;;;0.43;0.43;;;;;;;24.79;51.56;101478.16;4987438;28;20031;-65
2023/09/15 10:28:19;;;;;;;3.08;0.90;;;;;;;24.93;50.19;101470.28;4986099;28;20109;-65
2023/09/15 10:30:46;;;;;;;0.80;0.60;;;;;;;24.75;50.90;101471.97;4984222;28;20061;-64
2023/09/15 10:33:12;;;;;;;0.95;0.57;;;;;;;24.87;50.62;101474.78;4985110;28;20038;-66
2023/09/15 10:35:43;;;;;;;1.40;0.70;;;;;;;25.05;50.45;101468.81;4986948;28;20460;-65
2023/09/15 10:38:09;;;;;;;1.65;0.70;;;;;;;25.11;50.33;101464.31;4987594;28;20406;-63
2023/09/15 10:40:47;;;;;;;1.40;0.60;;;;;;;25.25;50.48;101468.69;4984888;28;20027;-63
2023/09/15 10:43:13;;;;;;;1.80;0.80;;;;;;;25.15;51.83;101458.69;4985902;28;20136;-61
2023/09/15 10:45:39;;;;;;;1.50;0.68;;;;;;;25.17;50.06;101465.34;4986259;28;20026;-65
2023/09/15 10:48:25;;;;;;;2.00;0.85;;;;;;;25.29;50.00;101447.28;4979380;28;20685;-64
2023/09/15 10:50:51;;;;;;;0.85;0.63;;;;;;;25.23;50.24;101449.03;4950086;28;20043;-63
2023/09/15 10:53:20;;;;;;;0.90;0.52;;;;;;;25.19;50.70;101449.13;4962068;28;20106;-64
2023/09/15 10:55:45;;;;;;;1.42;0.73;;;;;;;25.33;50.92;101448.75;4963558;28;20047;-64
2023/09/15 10:58:13;;;;;;;1.17;0.50;;;;;;;25.13;50.38;101444.56;4968481;28;20238;-64
2023/09/15 11:00:39;;;;;;;1.05;0.50;;;;;;;24.96;51.02;101441.88;4948168;28;20074;-64
2023/09/15 11:03:06;;;;;;;1.50;0.70;;;;;;;25.16;51.34;101444.50;4968357;28;20074;-64
2023/09/15 11:05:34;;;;;;;1.08;0.70;;;;;;;25.22;51.56;101428.19;4967311;28;20420;-64
2023/09/15 11:08:01;;;;;;;0.50;0.38;;;;;;;25.37;51.75;101429.34;4963925;28;20123;-64
2023/09/15 11:10:48;;;;;;;1.08;0.50;;;;;;;25.59;51.49;101428.31;4958937;28;20126;-63
2023/09/15 11:13:15;;;;;;;1.77;0.77;;;;;;;25.13;50.16;101439.06;4920787;29;20086;-62
2023/09/15 11:15:40;;;;;;;1.23;0.60;;;;;;;25.10;50.63;101432.44;4920124;29;20075;-63
2023/09/15 11:18:06;;;;;;;0.90;0.60;;;;;;;25.21;51.73;101419.13;4929767;29;20055;-64
2023/09/15 11:20:32;;;;;;;2.35;0.77;;;;;;;25.48;50.72;101416.03;4924945;29;20058;-64
2023/09/15 11:22:57;;;;;;;1.10;0.70;;;;;;;25.50;52.63;101430.16;4924754;29;20211;-64
2023/09/15 11:25:23;;;;;;;0.68;0.60;;;;;;;25.46;52.53;101435.00;4928268;29;20055;-64